createdAt,value
2018-06-09T00:00:22.292Z,0.00
2018-06-09T00:01:21.868Z,0.00
2018-06-09T00:02:21.865Z,0.00
2018-06-09T00:03:22.239Z,0.00
2018-06-09T00:04:22.174Z,0.00
2018-06-09T00:05:22.259Z,0.00
2018-06-09T00:06:22.246Z,0.00
2018-06-09T00:07:22.069Z,0.00
2018-06-09T00:08:22.108Z,0.00
2018-06-09T00:09:22.138Z,0.00
2018-06-09T00:10:22.174Z,0.00
2018-06-09T00:11:22.206Z,0.00
2018-06-09T00:13:23.236Z,0.00
2018-06-09T00:14:22.515Z,0.00
2018-06-09T00:15:22.973Z,0.00
2018-06-09T00:16:22.342Z,0.00
2018-06-09T00:17:22.412Z,0.00
2018-06-09T00:18:22.498Z,0.00
2018-06-09T00:19:22.476Z,0.00
2018-06-09T00:20:22.712Z,0.00
2018-06-09T00:23:22.621Z,0.00
2018-06-09T00:25:22.678Z,0.00
2018-06-09T00:26:23.428Z,0.00
2018-06-09T00:28:22.799Z,0.00
2018-06-09T00:29:23.271Z,0.00
2018-06-09T00:30:23.761Z,0.00
2018-06-09T00:31:22.829Z,0.00
2018-06-09T00:32:23.583Z,0.00
2018-06-09T00:33:23.254Z,0.00
2018-06-09T00:34:22.934Z,0.00
2018-06-09T00:35:23.214Z,0.00
2018-06-09T00:36:23.061Z,0.00
2018-06-09T00:37:23.302Z,0.00
2018-06-09T00:38:23.366Z,0.00
2018-06-09T00:39:23.153Z,0.00
2018-06-09T00:41:23.518Z,0.00
2018-06-09T00:42:23.255Z,0.00
2018-06-09T00:43:23.284Z,0.00
2018-06-09T00:45:23.655Z,0.00
2018-06-09T00:46:23.589Z,0.00
2018-06-09T00:47:23.428Z,0.00
2018-06-09T00:48:23.655Z,0.00
2018-06-09T00:49:23.487Z,0.00
2018-06-09T00:50:23.725Z,0.00
2018-06-09T00:51:23.812Z,0.00
2018-06-09T00:52:23.787Z,0.00
2018-06-09T00:53:23.576Z,0.00
2018-06-09T00:54:23.666Z,0.00
2018-06-09T00:55:23.890Z,0.00
2018-06-09T00:56:24.042Z,0.00
2018-06-09T00:58:24.040Z,0.00
2018-06-09T01:00:24.180Z,0.00
2018-06-09T01:01:24.148Z,0.00
2018-06-09T01:02:23.922Z,0.00
2018-06-09T01:03:24.262Z,0.00
2018-06-09T01:04:24.242Z,0.00
2018-06-09T01:07:24.088Z,0.00
2018-06-09T01:08:24.128Z,0.00
2018-06-09T01:09:24.159Z,0.00
2018-06-09T01:10:24.445Z,0.00
2018-06-09T01:11:24.223Z,0.00
2018-06-09T01:12:24.466Z,0.00
2018-06-09T01:13:24.595Z,0.00
2018-06-09T01:14:24.326Z,0.00
2018-06-09T01:16:24.649Z,0.00
2018-06-09T01:17:24.780Z,0.00
2018-06-09T01:19:24.449Z,0.00
2018-06-09T01:20:24.528Z,0.00
2018-06-09T01:21:24.976Z,0.00
2018-06-09T01:22:24.850Z,0.00
2018-06-09T01:23:24.579Z,0.00
2018-06-09T01:24:24.612Z,0.00
2018-06-09T01:25:24.645Z,0.00
2018-06-09T01:26:24.883Z,0.00
2018-06-09T01:27:24.959Z,0.00
2018-06-09T01:28:25.150Z,0.00
2018-06-09T01:30:24.904Z,0.00
2018-06-09T01:32:24.979Z,0.00
2018-06-09T01:33:24.966Z,0.00
2018-06-09T01:34:25.617Z,0.00
2018-06-09T01:35:24.989Z,0.00
2018-06-09T01:36:25.073Z,0.00
2018-06-09T01:37:25.328Z,0.00
2018-06-09T01:39:25.381Z,0.00
2018-06-09T01:40:25.264Z,0.00
2018-06-09T01:41:25.565Z,0.00
2018-06-09T01:43:25.245Z,0.00
2018-06-09T01:45:25.360Z,0.00
2018-06-09T01:46:25.771Z,0.00
2018-06-09T01:49:25.805Z,0.00
2018-06-09T01:51:25.564Z,0.00
2018-06-09T01:52:25.585Z,0.00
2018-06-09T01:53:25.831Z,0.00
2018-06-09T01:54:25.818Z,0.00
2018-06-09T01:55:25.672Z,0.00
2018-06-09T01:56:26.134Z,0.00
2018-06-09T01:57:25.815Z,0.00
2018-06-09T01:58:26.002Z,0.00
2018-06-09T02:00:26.180Z,0.00
2018-06-09T02:01:26.105Z,0.00
2018-06-09T02:02:26.090Z,0.00
2018-06-09T02:03:26.233Z,0.00
2018-06-09T02:04:25.999Z,0.00
2018-06-09T02:06:26.018Z,0.00
2018-06-09T02:07:26.102Z,0.00
2018-06-09T02:08:26.291Z,0.00
2018-06-09T02:09:26.172Z,0.00
2018-06-09T02:11:26.543Z,0.00
2018-06-09T02:12:26.272Z,0.00
2018-06-09T02:13:26.506Z,0.00
2018-06-09T02:14:26.339Z,0.00
2018-06-09T02:15:26.571Z,0.00
2018-06-09T02:16:26.404Z,0.00
2018-06-09T02:17:26.744Z,0.00
2018-06-09T02:18:26.922Z,0.00
2018-06-09T02:19:26.504Z,0.00
2018-06-09T02:20:26.501Z,0.00
2018-06-09T02:21:26.576Z,0.00
2018-06-09T02:22:26.569Z,0.00
2018-06-09T02:23:26.645Z,0.00
2018-06-09T02:24:26.626Z,0.00
2018-06-09T02:27:26.983Z,0.00
2018-06-09T02:28:26.767Z,0.00
2018-06-09T02:29:26.801Z,0.00
2018-06-09T02:30:27.099Z,0.00
2018-06-09T02:31:26.914Z,0.00
2018-06-09T02:32:27.200Z,0.00
2018-06-09T02:33:27.233Z,0.00
2018-06-09T02:34:27.013Z,0.00
2018-06-09T02:35:27.249Z,0.00
2018-06-09T02:36:27.312Z,0.00
2018-06-09T02:37:27.315Z,0.00
2018-06-09T02:38:27.350Z,0.00
2018-06-09T02:39:27.432Z,0.00
2018-06-09T02:40:27.170Z,0.00
2018-06-09T02:41:27.256Z,0.00
2018-06-09T02:42:27.324Z,0.00
2018-06-09T02:43:27.341Z,0.00
2018-06-09T02:44:27.378Z,0.00
2018-06-09T02:45:27.490Z,0.00
2018-06-09T02:46:27.882Z,0.00
2018-06-09T02:47:27.478Z,0.00
2018-06-09T02:48:27.891Z,0.00
2018-06-09T02:49:27.528Z,0.00
2018-06-09T02:50:27.563Z,0.00
2018-06-09T02:52:27.944Z,0.00
2018-06-09T02:53:27.668Z,0.00
2018-06-09T02:54:27.742Z,0.00
2018-06-09T02:55:27.724Z,0.00
2018-06-09T02:56:27.968Z,0.00
2018-06-09T02:57:27.944Z,0.00
2018-06-09T02:59:28.315Z,0.00
2018-06-09T03:01:28.130Z,0.00
2018-06-09T03:02:28.164Z,0.00
2018-06-09T03:03:27.999Z,0.00
2018-06-09T03:04:28.234Z,0.00
2018-06-09T03:05:28.326Z,0.00
2018-06-09T03:06:28.047Z,0.00
2018-06-09T03:07:28.147Z,0.00
2018-06-09T03:08:28.169Z,0.00
2018-06-09T03:09:28.198Z,0.00
2018-06-09T03:10:28.231Z,0.00
2018-06-09T03:11:28.568Z,0.00
2018-06-09T03:12:28.300Z,0.00
2018-06-09T03:13:28.348Z,0.00
2018-06-09T03:14:28.573Z,0.00
2018-06-09T03:15:28.357Z,0.00
2018-06-09T03:16:28.389Z,0.00
2018-06-09T03:17:28.728Z,0.00
2018-06-09T03:19:28.540Z,0.00
2018-06-09T03:20:28.571Z,0.00
2018-06-09T03:21:28.609Z,0.00
2018-06-09T03:22:29.377Z,0.00
2018-06-09T03:24:29.007Z,0.00
2018-06-09T03:26:28.789Z,0.00
2018-06-09T03:27:28.806Z,0.00
2018-06-09T03:28:28.801Z,0.00
2018-06-09T03:29:28.877Z,0.00
2018-06-09T03:30:29.382Z,0.00
2018-06-09T03:31:29.147Z,0.00
2018-06-09T03:32:29.000Z,0.00
2018-06-09T03:33:29.029Z,0.00
2018-06-09T03:34:29.047Z,0.00
2018-06-09T03:35:29.075Z,0.00
2018-06-09T03:36:29.317Z,0.00
2018-06-09T03:37:29.099Z,0.00
2018-06-09T03:38:29.177Z,0.00
2018-06-09T03:39:29.368Z,5.63
2018-06-09T03:40:29.288Z,5.63
2018-06-09T03:42:29.815Z,5.63
2018-06-09T03:43:29.548Z,5.63
2018-06-09T03:44:29.689Z,5.63
2018-06-09T03:46:29.402Z,5.63
2018-06-09T03:47:29.481Z,5.63
2018-06-09T03:48:30.023Z,5.63
2018-06-09T03:49:30.359Z,5.63
2018-06-09T03:50:29.613Z,5.63
2018-06-09T03:51:29.828Z,5.63
2018-06-09T03:52:29.604Z,11.25
2018-06-09T03:53:29.712Z,11.25
2018-06-09T03:54:29.979Z,11.25
2018-06-09T03:55:29.974Z,11.25
2018-06-09T03:56:29.804Z,11.25
2018-06-09T03:57:29.819Z,11.25
2018-06-09T03:58:30.014Z,11.25
2018-06-09T03:59:29.913Z,11.25
2018-06-09T04:00:30.507Z,11.25
2018-06-09T04:01:29.961Z,16.88
2018-06-09T04:02:30.306Z,16.88
2018-06-09T04:03:30.344Z,16.88
2018-06-09T04:04:30.090Z,16.88
2018-06-09T04:06:30.382Z,16.88
2018-06-09T04:07:30.170Z,16.88
2018-06-09T04:08:30.211Z,22.50
2018-06-09T04:09:30.531Z,22.50
2018-06-09T04:10:30.315Z,22.50
2018-06-09T04:11:30.305Z,22.50
2018-06-09T04:12:31.105Z,22.50
2018-06-09T04:13:30.364Z,22.50
2018-06-09T04:14:30.703Z,22.50
2018-06-09T04:15:30.632Z,22.50
2018-06-09T04:16:30.465Z,22.50
2018-06-09T04:17:30.458Z,22.50
2018-06-09T04:18:30.789Z,22.50
2018-06-09T04:19:30.770Z,22.50
2018-06-09T04:20:30.853Z,22.50
2018-06-09T04:22:31.022Z,22.50
2018-06-09T04:23:30.700Z,22.50
2018-06-09T04:24:30.736Z,22.50
2018-06-09T04:25:31.019Z,28.13
2018-06-09T04:26:30.755Z,28.13
2018-06-09T04:27:30.836Z,28.13
2018-06-09T04:28:30.869Z,28.13
2018-06-09T04:29:31.108Z,28.13
2018-06-09T04:30:30.894Z,28.13
2018-06-09T04:31:30.973Z,28.13
2018-06-09T04:32:31.210Z,28.13
2018-06-09T04:33:31.294Z,28.13
2018-06-09T04:35:31.312Z,28.13
2018-06-09T04:36:31.142Z,28.13
2018-06-09T04:37:31.189Z,22.50
2018-06-09T04:38:31.162Z,22.50
2018-06-09T04:39:31.847Z,22.50
2018-06-09T04:40:31.281Z,22.50
2018-06-09T04:42:31.556Z,22.50
2018-06-09T04:43:31.380Z,22.50
2018-06-09T04:44:31.370Z,22.50
2018-06-09T04:45:31.451Z,28.13
2018-06-09T04:46:31.737Z,28.13
2018-06-09T04:47:31.515Z,28.13
2018-06-09T04:49:31.584Z,28.13
2018-06-09T04:50:31.619Z,28.13
2018-06-09T04:54:31.999Z,22.50
2018-06-09T04:55:31.790Z,22.50
2018-06-09T04:56:32.124Z,22.50
2018-06-09T04:57:31.852Z,28.13
2018-06-09T04:58:32.089Z,28.13
2018-06-09T04:59:32.135Z,33.75
2018-06-09T05:00:31.958Z,33.75
2018-06-09T05:01:32.297Z,33.75
2018-06-09T05:02:32.021Z,39.38
2018-06-09T05:04:32.297Z,39.38
2018-06-09T05:05:32.076Z,39.38
2018-06-09T05:06:32.159Z,39.38
2018-06-09T05:07:32.245Z,39.38
2018-06-09T05:08:33.035Z,39.38
2018-06-09T05:09:32.264Z,39.38
2018-06-09T05:10:32.807Z,39.38
2018-06-09T05:12:32.385Z,33.75
2018-06-09T05:13:32.407Z,33.75
2018-06-09T05:14:32.391Z,39.38
2018-06-09T05:15:32.970Z,39.38
2018-06-09T05:16:32.456Z,39.38
2018-06-09T05:17:32.689Z,39.38
2018-06-09T05:18:32.567Z,33.75
2018-06-09T05:19:32.630Z,33.75
2018-06-09T05:20:32.838Z,33.75
2018-06-09T05:21:32.822Z,28.13
2018-06-09T05:22:32.953Z,33.75
2018-06-09T05:23:32.946Z,39.38
2018-06-09T05:25:33.013Z,39.38
2018-06-09T05:26:32.791Z,39.38
2018-06-09T05:27:32.893Z,45.00
2018-06-09T05:28:33.122Z,45.00
2018-06-09T05:29:33.143Z,45.00
2018-06-09T05:30:33.283Z,45.00
2018-06-09T05:31:33.226Z,45.00
2018-06-09T05:32:33.260Z,45.00
2018-06-09T05:33:33.035Z,45.00
2018-06-09T05:34:33.315Z,45.00
2018-06-09T05:36:33.642Z,45.00
2018-06-09T05:37:33.171Z,45.00
2018-06-09T05:38:33.252Z,45.00
2018-06-09T05:39:33.284Z,45.00
2018-06-09T05:41:33.557Z,50.63
2018-06-09T05:42:33.542Z,45.00
2018-06-09T05:43:33.387Z,45.00
2018-06-09T05:44:33.471Z,50.63
2018-06-09T05:45:33.848Z,50.63
2018-06-09T05:47:34.013Z,50.63
2018-06-09T05:48:33.595Z,50.63
2018-06-09T05:49:33.745Z,45.00
2018-06-09T05:50:34.171Z,50.63
2018-06-09T05:51:33.695Z,56.25
2018-06-09T05:52:33.678Z,56.25
2018-06-09T05:53:34.635Z,61.88
2018-06-09T05:54:34.207Z,61.88
2018-06-09T05:57:33.900Z,67.50
2018-06-09T05:58:34.090Z,73.13
2018-06-09T05:59:34.218Z,73.13
2018-06-09T06:00:34.002Z,78.75
2018-06-09T06:01:34.071Z,78.75
2018-06-09T06:02:34.272Z,78.75
2018-06-09T06:04:34.140Z,84.38
2018-06-09T06:05:34.173Z,84.38
2018-06-09T06:06:34.665Z,84.38
2018-06-09T06:07:34.243Z,90.00
2018-06-09T06:09:34.258Z,90.00
2018-06-09T06:10:34.342Z,90.00
2018-06-09T06:11:34.378Z,95.63
2018-06-09T06:12:34.864Z,101.25
2018-06-09T06:13:34.750Z,101.25
2018-06-09T06:14:34.495Z,101.25
2018-06-09T06:15:34.532Z,101.25
2018-06-09T06:16:34.523Z,101.25
2018-06-09T06:17:34.582Z,101.25
2018-06-09T06:18:35.123Z,95.63
2018-06-09T06:19:34.860Z,95.63
2018-06-09T06:20:34.694Z,95.63
2018-06-09T06:21:34.676Z,101.25
2018-06-09T06:22:34.766Z,101.25
2018-06-09T06:23:34.943Z,101.25
2018-06-09T06:25:35.109Z,101.25
2018-06-09T06:26:35.098Z,101.25
2018-06-09T06:27:35.282Z,106.88
2018-06-09T06:28:34.919Z,106.88
2018-06-09T06:29:35.099Z,106.88
2018-06-09T06:30:35.041Z,101.25
2018-06-09T06:31:35.523Z,101.25
2018-06-09T06:32:35.100Z,106.88
2018-06-09T06:33:35.089Z,106.88
2018-06-09T06:34:35.438Z,106.88
2018-06-09T06:35:35.154Z,101.25
2018-06-09T06:36:35.238Z,101.25
2018-06-09T06:37:35.570Z,106.88
2018-06-09T06:39:36.054Z,106.88
2018-06-09T06:40:35.328Z,101.25
2018-06-09T06:41:35.362Z,95.63
2018-06-09T06:43:36.034Z,90.00
2018-06-09T06:44:35.524Z,90.00
2018-06-09T06:45:35.702Z,90.00
2018-06-09T06:46:36.496Z,95.63
2018-06-09T06:47:35.614Z,95.63
2018-06-09T06:48:35.654Z,90.00
2018-06-09T06:49:35.935Z,84.38
2018-06-09T06:51:35.780Z,84.38
2018-06-09T06:52:36.045Z,90.00
2018-06-09T06:53:35.775Z,90.00
2018-06-09T06:54:36.013Z,95.63
2018-06-09T06:55:36.450Z,95.63
2018-06-09T06:56:35.963Z,95.63
2018-06-09T06:57:35.968Z,95.63
2018-06-09T06:58:36.045Z,95.63
2018-06-09T06:59:36.039Z,95.63
2018-06-09T07:00:36.081Z,95.63
2018-06-09T07:01:36.658Z,95.63
2018-06-09T07:03:36.122Z,95.63
2018-06-09T07:04:36.617Z,101.25
2018-06-09T07:05:36.574Z,101.25
2018-06-09T07:06:36.298Z,101.25
2018-06-09T07:07:36.312Z,95.63
2018-06-09T07:09:36.678Z,95.63
2018-06-09T07:11:36.463Z,95.63
2018-06-09T07:12:36.802Z,95.63
2018-06-09T07:13:36.822Z,95.63
2018-06-09T07:14:36.753Z,95.63
2018-06-09T07:15:36.810Z,101.25
2018-06-09T07:16:36.929Z,101.25
2018-06-09T07:17:36.653Z,101.25
2018-06-09T07:18:36.845Z,101.25
2018-06-09T07:19:36.932Z,101.25
2018-06-09T07:20:37.065Z,101.25
2018-06-09T07:21:37.002Z,101.25
2018-06-09T07:24:37.149Z,101.25
2018-06-09T07:25:36.886Z,101.25
2018-06-09T07:26:37.177Z,101.25
2018-06-09T07:27:37.307Z,101.25
2018-06-09T07:29:37.069Z,101.25
2018-06-09T07:30:37.113Z,101.25
2018-06-09T07:31:37.395Z,106.88
2018-06-09T07:33:37.271Z,101.25
2018-06-09T07:34:37.401Z,101.25
2018-06-09T07:35:37.937Z,95.63
2018-06-09T07:38:38.242Z,90.00
2018-06-09T07:39:37.375Z,90.00
2018-06-09T07:40:37.508Z,90.00
2018-06-09T07:42:37.559Z,95.63
2018-06-09T07:43:37.508Z,95.63
2018-06-09T07:44:37.594Z,95.63
2018-06-09T07:45:37.931Z,90.00
2018-06-09T07:46:37.664Z,90.00
2018-06-09T07:47:37.727Z,84.38
2018-06-09T07:49:37.821Z,84.38
2018-06-09T07:50:37.816Z,84.38
2018-06-09T07:51:37.834Z,84.38
2018-06-09T07:52:38.131Z,84.38
2018-06-09T07:53:37.907Z,90.00
2018-06-09T07:54:37.947Z,90.00
2018-06-09T07:55:37.985Z,90.00
2018-06-09T07:56:38.012Z,90.00
2018-06-09T07:57:38.073Z,90.00
2018-06-09T07:58:38.080Z,90.00
2018-06-09T07:59:39.262Z,84.38
2018-06-09T08:00:38.100Z,78.75
2018-06-09T08:02:38.218Z,78.75
2018-06-09T08:04:38.618Z,84.38
2018-06-09T08:05:38.326Z,84.38
2018-06-09T08:06:38.660Z,84.38
2018-06-09T08:07:38.396Z,90.00
2018-06-09T08:08:38.441Z,84.38
2018-06-09T08:09:38.669Z,84.38
2018-06-09T08:10:38.502Z,84.38
2018-06-09T08:11:38.536Z,84.38
2018-06-09T08:12:38.886Z,90.00
2018-06-09T08:13:38.902Z,84.38
2018-06-09T08:14:38.640Z,78.75
2018-06-09T08:15:38.684Z,78.75
2018-06-09T08:16:38.658Z,73.13
2018-06-09T08:19:39.076Z,73.13
2018-06-09T08:20:38.846Z,78.75
2018-06-09T08:21:38.907Z,78.75
2018-06-09T08:23:38.958Z,84.38
2018-06-09T08:24:38.947Z,84.38
2018-06-09T08:25:39.023Z,84.38
2018-06-09T08:26:39.311Z,84.38
2018-06-09T08:27:39.049Z,84.38
2018-06-09T08:28:39.134Z,84.38
2018-06-09T08:29:39.519Z,84.38
2018-06-09T08:30:39.426Z,84.38
2018-06-09T08:31:39.246Z,90.00
2018-06-09T08:32:39.524Z,90.00
2018-06-09T08:33:39.304Z,95.63
2018-06-09T08:34:39.438Z,101.25
2018-06-09T08:35:39.328Z,101.25
2018-06-09T08:36:39.914Z,106.88
2018-06-09T08:38:39.725Z,112.50
2018-06-09T08:39:39.525Z,112.50
2018-06-09T08:40:39.497Z,118.13
2018-06-09T08:41:39.532Z,123.75
2018-06-09T08:42:39.615Z,123.75
2018-06-09T08:43:39.973Z,129.38
2018-06-09T08:44:40.441Z,129.38
2018-06-09T08:46:39.760Z,118.13
2018-06-09T08:47:39.795Z,118.13
2018-06-09T08:48:39.825Z,118.13
2018-06-09T08:49:40.067Z,118.13
2018-06-09T08:50:39.903Z,123.75
2018-06-09T08:51:39.928Z,129.38
2018-06-09T08:52:40.381Z,129.38
2018-06-09T08:53:39.953Z,129.38
2018-06-09T08:54:40.311Z,129.38
2018-06-09T08:55:40.075Z,135.00
2018-06-09T08:56:40.625Z,135.00
2018-06-09T08:57:40.168Z,135.00
2018-06-09T08:58:40.381Z,135.00
2018-06-09T08:59:40.340Z,135.00
2018-06-09T09:01:40.322Z,129.38
2018-06-09T09:02:40.435Z,123.75
2018-06-09T09:03:41.421Z,123.75
2018-06-09T09:04:40.390Z,129.38
2018-06-09T09:05:40.656Z,129.38
2018-06-09T09:06:40.469Z,135.00
2018-06-09T09:07:40.901Z,135.00
2018-06-09T09:09:40.826Z,129.38
2018-06-09T09:10:41.163Z,129.38
2018-06-09T09:11:40.638Z,129.38
2018-06-09T09:12:40.674Z,123.75
2018-06-09T09:13:40.706Z,123.75
2018-06-09T09:14:40.693Z,123.75
2018-06-09T09:17:40.799Z,129.38
2018-06-09T09:18:40.883Z,129.38
2018-06-09T09:19:40.958Z,129.38
2018-06-09T09:20:40.956Z,129.38
2018-06-09T09:21:41.258Z,129.38
2018-06-09T09:23:41.262Z,135.00
2018-06-09T09:25:41.138Z,135.00
2018-06-09T09:26:41.176Z,140.63
2018-06-09T09:27:41.808Z,140.63
2018-06-09T09:29:41.479Z,140.63
2018-06-09T09:30:41.353Z,140.63
2018-06-09T09:31:41.392Z,140.63
2018-06-09T09:33:41.682Z,140.63
2018-06-09T09:34:41.453Z,140.63
2018-06-09T09:35:41.561Z,140.63
2018-06-09T09:37:41.568Z,129.38
2018-06-09T09:38:41.592Z,129.38
2018-06-09T09:39:41.942Z,123.75
2018-06-09T09:40:41.614Z,123.75
2018-06-09T09:41:41.921Z,129.38
2018-06-09T09:42:41.746Z,129.38
2018-06-09T09:43:41.742Z,129.38
2018-06-09T09:44:41.820Z,123.75
2018-06-09T09:45:42.146Z,123.75
2018-06-09T09:46:41.886Z,123.75
2018-06-09T09:47:41.871Z,118.13
2018-06-09T09:49:42.012Z,123.75
2018-06-09T09:50:41.979Z,123.75
2018-06-09T09:51:42.067Z,123.75
2018-06-09T09:52:42.593Z,123.75
2018-06-09T09:53:42.432Z,123.75
2018-06-09T09:55:42.355Z,123.75
2018-06-09T09:56:42.271Z,123.75
2018-06-09T09:57:42.226Z,123.75
2018-06-09T09:58:42.657Z,123.75
2018-06-09T09:59:42.598Z,123.75
2018-06-09T10:00:42.834Z,123.75
2018-06-09T10:01:42.360Z,123.75
2018-06-09T10:02:42.655Z,118.13
2018-06-09T10:03:42.464Z,118.13
2018-06-09T10:04:42.565Z,118.13
2018-06-09T10:05:42.528Z,118.13
2018-06-09T10:06:42.540Z,118.13
2018-06-09T10:07:42.630Z,118.13
2018-06-09T10:08:42.663Z,123.75
2018-06-09T10:09:42.651Z,123.75
2018-06-09T10:10:42.804Z,123.75
2018-06-09T10:12:43.113Z,123.75
2018-06-09T10:13:42.791Z,123.75
2018-06-09T10:14:43.082Z,123.75
2018-06-09T10:15:42.864Z,129.38
2018-06-09T10:16:42.949Z,129.38
2018-06-09T10:17:43.193Z,129.38
2018-06-09T10:19:43.303Z,129.38
2018-06-09T10:20:43.388Z,129.38
2018-06-09T10:21:43.434Z,129.38
2018-06-09T10:22:43.108Z,129.38
2018-06-09T10:24:43.259Z,129.38
2018-06-09T10:25:43.269Z,129.38
2018-06-09T10:27:43.842Z,129.38
2018-06-09T10:28:43.371Z,129.38
2018-06-09T10:29:44.118Z,129.38
2018-06-09T10:30:43.560Z,129.38
2018-06-09T10:31:43.586Z,129.38
2018-06-09T10:32:43.985Z,129.38
2018-06-09T10:33:43.569Z,129.38
2018-06-09T10:34:44.626Z,129.38
2018-06-09T10:35:43.732Z,129.38
2018-06-09T10:37:43.648Z,129.38
2018-06-09T10:38:44.331Z,129.38
2018-06-09T10:39:44.139Z,129.38
2018-06-09T10:40:43.822Z,129.38
2018-06-09T10:41:44.394Z,129.38
2018-06-09T10:42:43.827Z,129.38
2018-06-09T10:43:43.910Z,129.38
2018-06-09T10:44:44.247Z,129.38
2018-06-09T10:45:43.989Z,129.38
2018-06-09T10:46:43.989Z,129.38
2018-06-09T10:47:44.077Z,129.38
2018-06-09T10:48:44.438Z,129.38
2018-06-09T10:49:44.119Z,129.38
2018-06-09T10:50:44.500Z,135.00
2018-06-09T10:51:44.148Z,135.00
2018-06-09T10:52:44.444Z,135.00
2018-06-09T10:53:44.285Z,135.00
2018-06-09T10:54:44.604Z,135.00
2018-06-09T10:55:44.354Z,135.00
2018-06-09T10:56:44.379Z,135.00
2018-06-09T10:57:44.421Z,135.00
2018-06-09T10:58:44.414Z,140.63
2018-06-09T10:59:45.044Z,140.63
2018-06-09T11:01:44.852Z,140.63
2018-06-09T11:02:44.917Z,140.63
2018-06-09T11:03:44.833Z,140.63
2018-06-09T11:04:44.633Z,146.25
2018-06-09T11:05:44.700Z,146.25
2018-06-09T11:06:44.745Z,146.25
2018-06-09T11:07:44.767Z,146.25
2018-06-09T11:08:45.058Z,146.25
2018-06-09T11:09:44.848Z,146.25
2018-06-09T11:10:44.828Z,146.25
2018-06-09T11:11:44.928Z,146.25
2018-06-09T11:12:45.309Z,151.88
2018-06-09T11:13:44.999Z,151.88
2018-06-09T11:14:45.325Z,151.88
2018-06-09T11:15:45.312Z,151.88
2018-06-09T11:16:45.104Z,151.88
2018-06-09T11:17:45.129Z,151.88
2018-06-09T11:18:45.316Z,151.88
2018-06-09T11:19:45.204Z,157.50
2018-06-09T11:20:45.462Z,157.50
2018-06-09T11:21:45.240Z,157.50
2018-06-09T11:23:45.292Z,157.50
2018-06-09T11:24:45.331Z,163.13
2018-06-09T11:25:45.418Z,163.13
2018-06-09T11:26:45.808Z,163.13
2018-06-09T11:27:45.497Z,163.13
2018-06-09T11:28:45.824Z,163.13
2018-06-09T11:29:45.778Z,163.13
2018-06-09T11:30:45.600Z,168.75
2018-06-09T11:31:46.001Z,168.75
2018-06-09T11:32:45.976Z,168.75
2018-06-09T11:33:45.739Z,168.75
2018-06-09T11:34:45.895Z,174.38
2018-06-09T11:35:45.808Z,174.38
2018-06-09T11:36:45.858Z,174.38
2018-06-09T11:37:45.878Z,168.75
2018-06-09T11:38:46.136Z,168.75
2018-06-09T11:39:46.074Z,168.75
2018-06-09T11:40:45.955Z,168.75
2018-06-09T11:41:46.023Z,174.38
2018-06-09T11:42:45.991Z,174.38
2018-06-09T11:43:46.093Z,174.38
2018-06-09T11:45:46.385Z,180.00
2018-06-09T11:46:46.170Z,180.00
2018-06-09T11:47:46.158Z,180.00
2018-06-09T11:48:46.397Z,180.00
2018-06-09T11:49:46.240Z,180.00
2018-06-09T11:50:46.284Z,180.00
2018-06-09T11:51:46.554Z,185.63
2018-06-09T11:52:46.387Z,185.63
2018-06-09T11:53:46.429Z,185.63
2018-06-09T11:54:46.457Z,185.63
2018-06-09T11:55:46.447Z,185.63
2018-06-09T11:56:46.527Z,191.25
2018-06-09T11:57:46.872Z,191.25
2018-06-09T11:58:46.603Z,191.25
2018-06-09T11:59:46.592Z,196.88
2018-06-09T12:00:46.687Z,196.88
2018-06-09T12:01:46.716Z,202.50
2018-06-09T12:02:46.904Z,202.50
2018-06-09T12:03:47.335Z,202.50
2018-06-09T12:04:46.831Z,202.50
2018-06-09T12:05:46.874Z,202.50
2018-06-09T12:06:46.903Z,208.13
2018-06-09T12:07:47.083Z,208.13
2018-06-09T12:08:46.917Z,213.75
2018-06-09T12:09:47.268Z,213.75
2018-06-09T12:10:47.028Z,213.75
2018-06-09T12:11:47.092Z,213.75
2018-06-09T12:12:47.175Z,219.38
2018-06-09T12:13:47.297Z,219.38
2018-06-09T12:14:47.169Z,219.38
2018-06-09T12:15:47.170Z,225.00
2018-06-09T12:16:47.206Z,225.00
2018-06-09T12:17:47.522Z,225.00
2018-06-09T12:18:47.478Z,230.63
2018-06-09T12:19:47.318Z,230.63
2018-06-09T12:20:47.353Z,230.63
2018-06-09T12:21:47.897Z,230.63
2018-06-09T12:22:47.420Z,236.25
2018-06-09T12:23:47.530Z,236.25
2018-06-09T12:24:47.504Z,236.25
2018-06-09T12:25:47.530Z,236.25
2018-06-09T12:26:47.576Z,236.25
2018-06-09T12:27:47.957Z,241.88
2018-06-09T12:28:47.644Z,241.88
2018-06-09T12:30:47.749Z,247.50
2018-06-09T12:31:47.762Z,253.13
2018-06-09T12:32:47.787Z,253.13
2018-06-09T12:33:48.084Z,253.13
2018-06-09T12:34:47.857Z,253.13
2018-06-09T12:35:47.905Z,258.75
2018-06-09T12:36:47.932Z,258.75
2018-06-09T12:37:47.967Z,264.38
2018-06-09T12:38:48.014Z,264.38
2018-06-09T12:39:48.090Z,270.00
2018-06-09T12:40:48.346Z,270.00
2018-06-09T12:41:48.112Z,270.00
2018-06-09T12:42:48.173Z,275.63
2018-06-09T12:43:48.187Z,281.25
2018-06-09T12:44:48.225Z,281.25
2018-06-09T12:45:48.266Z,286.88
2018-06-09T12:46:48.295Z,286.88
2018-06-09T12:47:48.607Z,292.50
2018-06-09T12:48:48.444Z,292.50
2018-06-09T12:49:48.412Z,298.13
2018-06-09T12:50:48.443Z,298.13
2018-06-09T12:51:48.479Z,303.75
2018-06-09T12:52:48.520Z,303.75
2018-06-09T12:53:48.553Z,309.38
2018-06-09T12:54:48.913Z,315.00
2018-06-09T12:55:48.627Z,315.00
2018-06-09T12:57:48.700Z,326.25
2018-06-09T12:58:49.289Z,326.25
2018-06-09T12:59:48.830Z,331.88
2018-06-09T13:00:48.862Z,331.88
2018-06-09T13:01:49.152Z,337.50
2018-06-09T13:02:48.908Z,337.50
2018-06-09T13:03:48.969Z,343.13
2018-06-09T13:04:49.225Z,343.13
2018-06-09T13:05:49.264Z,343.13
2018-06-09T13:07:49.188Z,354.38
2018-06-09T13:08:49.405Z,371.25
2018-06-09T13:09:49.205Z,472.50
2018-06-09T13:10:49.179Z,556.88
2018-06-09T13:11:49.219Z,556.88
2018-06-09T13:12:49.281Z,579.38
2018-06-09T13:13:49.647Z,585.00
2018-06-09T13:14:49.684Z,585.00
2018-06-09T13:15:49.617Z,607.50
2018-06-09T13:16:49.655Z,613.13
2018-06-09T13:17:49.496Z,663.75
2018-06-09T13:18:49.536Z,697.50
2018-06-09T13:20:49.644Z,658.13
2018-06-09T13:21:49.845Z,708.75
2018-06-09T13:22:50.001Z,697.50
2018-06-09T13:23:49.679Z,691.88
2018-06-09T13:24:49.803Z,708.75
2018-06-09T13:25:50.070Z,708.75
2018-06-09T13:26:49.802Z,703.13
2018-06-09T13:27:49.886Z,703.13
2018-06-09T13:28:49.871Z,731.25
2018-06-09T13:29:50.472Z,765.00
2018-06-09T13:31:50.072Z,838.13
2018-06-09T13:32:50.024Z,855.00
2018-06-09T13:33:50.124Z,832.50
2018-06-09T13:34:50.148Z,826.88
2018-06-09T13:35:50.213Z,826.88
2018-06-09T13:36:51.130Z,832.50
2018-06-09T13:37:50.218Z,843.75
2018-06-09T13:39:50.361Z,866.25
2018-06-09T13:40:50.590Z,894.38
2018-06-09T13:42:50.792Z,849.38
2018-06-09T13:43:50.509Z,815.63
2018-06-09T13:44:50.554Z,860.63
2018-06-09T13:45:50.552Z,888.75
2018-06-09T13:46:50.621Z,877.50
2018-06-09T13:47:50.624Z,900.00
2018-06-09T13:48:50.709Z,911.25
2018-06-09T13:49:51.005Z,900.00
2018-06-09T13:50:51.099Z,860.63
2018-06-09T13:52:50.830Z,905.63
2018-06-09T13:53:50.871Z,928.13
2018-06-09T13:54:50.897Z,928.13
2018-06-09T13:55:50.940Z,928.13
2018-06-09T13:56:51.364Z,922.50
2018-06-09T13:57:51.119Z,933.75
2018-06-09T13:58:51.310Z,945.00
2018-06-09T13:59:51.867Z,945.00
2018-06-09T14:01:52.164Z,961.88
2018-06-09T14:02:51.304Z,984.38
2018-06-09T14:03:51.312Z,978.75
2018-06-09T14:04:51.359Z,978.75
2018-06-09T14:05:51.715Z,978.75
2018-06-09T14:06:51.657Z,1006.88
2018-06-09T14:08:52.278Z,1018.13
2018-06-09T14:09:52.168Z,1006.88
2018-06-09T14:10:51.868Z,967.50
2018-06-09T14:11:51.651Z,973.13
2018-06-09T14:12:51.740Z,990.00
2018-06-09T14:13:51.674Z,984.38
2018-06-09T14:15:52.117Z,1051.88
2018-06-09T14:16:51.849Z,1046.25
2018-06-09T14:17:51.850Z,1057.50
2018-06-09T14:18:51.985Z,1057.50
2018-06-09T14:19:51.980Z,1029.38
2018-06-09T14:20:52.724Z,1023.75
2018-06-09T14:21:52.360Z,1057.50
2018-06-09T14:23:52.094Z,1035.00
2018-06-09T14:24:52.136Z,1074.38
2018-06-09T14:25:52.176Z,1023.75
2018-06-09T14:26:52.277Z,950.63
2018-06-09T14:27:52.580Z,1040.63
2018-06-09T14:28:52.583Z,1091.25
2018-06-09T14:29:52.614Z,1091.25
2018-06-09T14:30:52.399Z,1046.25
2018-06-09T14:31:52.434Z,1046.25